<?xml version="1.0" encoding="UTF-8" standalone="no" ?>
<gpx xmlns="http://www.topografix.com/GPX/1/1" xmlns:xsi="http://www.w3.org/2001/XMLSchema-instance" xsi:schemaLocation="http://www.topografix.com/GPX/1/1 http://www.topografix.com/GPX/1/1/gpx.xsd" version="1.1" creator="VisuGPX - https://www.visugpx.com">
  <metadata>
    <name>Vacances 2021</name>
  </metadata>
  <trk>
    <name><![CDATA[Journal actif: 2021-08-05 17:33]]></name>
    <trkseg>
      <trkpt lat="46.65245" lon="0.36661">
        <ele>88.1</ele>
        <time>2021-08-05T19:33:18Z</time>
      </trkpt>
      <trkpt lat="46.65245" lon="0.36661">
        <ele>87.14</ele>
        <time>2021-08-05T19:33:34Z</time>
      </trkpt>
      <trkpt lat="46.65234" lon="0.36681">
        <ele>85.69</ele>
        <time>2021-08-05T19:33:45Z</time>
      </trkpt>
      <trkpt lat="46.65232" lon="0.36695">
        <ele>85.69</ele>
        <time>2021-08-05T19:33:48Z</time>
      </trkpt>
      <trkpt lat="46.65235" lon="0.36698">
        <ele>86.18</ele>
        <time>2021-08-05T19:33:49Z</time>
      </trkpt>
      <trkpt lat="46.65239" lon="0.36703">
        <ele>86.18</ele>
        <time>2021-08-05T19:33:50Z</time>
      </trkpt>
      <trkpt lat="46.65279" lon="0.36752">
        <ele>87.62</ele>
        <time>2021-08-05T19:33:59Z</time>
      </trkpt>
      <trkpt lat="46.65284" lon="0.36756">
        <ele>87.62</ele>
        <time>2021-08-05T19:34:00Z</time>
      </trkpt>
      <trkpt lat="46.65288" lon="0.36761">
        <ele>87.62</ele>
        <time>2021-08-05T19:34:01Z</time>
      </trkpt>
      <trkpt lat="46.65292" lon="0.36761">
        <ele>87.62</ele>
        <time>2021-08-05T19:34:02Z</time>
      </trkpt>
      <trkpt lat="46.65296" lon="0.3676">
        <ele>87.62</ele>
        <time>2021-08-05T19:34:03Z</time>
      </trkpt>
      <trkpt lat="46.65301" lon="0.3676">
        <ele>87.62</ele>
        <time>2021-08-05T19:34:14Z</time>
      </trkpt>
      <trkpt lat="46.65301" lon="0.3676">
        <ele>87.62</ele>
        <time>2021-08-05T19:34:15Z</time>
      </trkpt>
      <trkpt lat="46.65304" lon="0.36759">
        <ele>87.62</ele>
        <time>2021-08-05T19:34:16Z</time>
      </trkpt>
      <trkpt lat="46.65304" lon="0.36758">
        <ele>87.62</ele>
        <time>2021-08-05T19:34:17Z</time>
      </trkpt>
      <trkpt lat="46.65305" lon="0.36752">
        <ele>87.62</ele>
        <time>2021-08-05T19:34:18Z</time>
      </trkpt>
      <trkpt lat="46.65307" lon="0.36744">
        <ele>87.62</ele>
        <time>2021-08-05T19:34:19Z</time>
      </trkpt>
      <trkpt lat="46.65336" lon="0.36658">
        <ele>90.02</ele>
        <time>2021-08-05T19:34:28Z</time>
      </trkpt>
      <trkpt lat="46.65351" lon="0.36616">
        <ele>89.54</ele>
        <time>2021-08-05T19:34:32Z</time>
      </trkpt>
      <trkpt lat="46.65353" lon="0.36607">
        <ele>89.54</ele>
        <time>2021-08-05T19:34:33Z</time>
      </trkpt>
      <trkpt lat="46.65373" lon="0.36587">
        <ele>89.06</ele>
        <time>2021-08-05T19:34:37Z</time>
      </trkpt>
      <trkpt lat="46.65377" lon="0.36582">
        <ele>89.06</ele>
        <time>2021-08-05T19:34:38Z</time>
      </trkpt>
      <trkpt lat="46.65381" lon="0.36577">
        <ele>89.54</ele>
        <time>2021-08-05T19:34:39Z</time>
      </trkpt>
      <trkpt lat="46.65386" lon="0.36576">
        <ele>89.54</ele>
        <time>2021-08-05T19:34:40Z</time>
      </trkpt>
      <trkpt lat="46.65393" lon="0.36575">
        <ele>90.02</ele>
        <time>2021-08-05T19:34:41Z</time>
      </trkpt>
      <trkpt lat="46.65399" lon="0.36577">
        <ele>90.02</ele>
        <time>2021-08-05T19:34:42Z</time>
      </trkpt>
      <trkpt lat="46.65486" lon="0.36611">
        <ele>93.87</ele>
        <time>2021-08-05T19:34:51Z</time>
      </trkpt>
      <trkpt lat="46.65606" lon="0.36665">
        <ele>93.87</ele>
        <time>2021-08-05T19:34:59Z</time>
      </trkpt>
      <trkpt lat="46.65847" lon="0.36816">
        <ele>89.06</ele>
        <time>2021-08-05T19:35:14Z</time>
      </trkpt>
      <trkpt lat="46.65957" lon="0.36908">
        <ele>82.33</ele>
        <time>2021-08-05T19:35:25Z</time>
      </trkpt>
      <trkpt lat="46.65973" lon="0.36928">
        <ele>82.81</ele>
        <time>2021-08-05T19:35:28Z</time>
      </trkpt>
      <trkpt lat="46.65977" lon="0.36933">
        <ele>82.81</ele>
        <time>2021-08-05T19:35:29Z</time>
      </trkpt>
      <trkpt lat="46.6598" lon="0.3694">
        <ele>83.29</ele>
        <time>2021-08-05T19:35:30Z</time>
      </trkpt>
      <trkpt lat="46.65983" lon="0.36949">
        <ele>83.29</ele>
        <time>2021-08-05T19:35:31Z</time>
      </trkpt>
      <trkpt lat="46.65991" lon="0.36968">
        <ele>83.77</ele>
        <time>2021-08-05T19:35:32Z</time>
      </trkpt>
      <trkpt lat="46.65991" lon="0.36968">
        <ele>83.77</ele>
        <time>2021-08-05T19:35:33Z</time>
      </trkpt>
      <trkpt lat="46.65997" lon="0.36975">
        <ele>83.77</ele>
        <time>2021-08-05T19:35:34Z</time>
      </trkpt>
      <trkpt lat="46.66003" lon="0.36982">
        <ele>83.77</ele>
        <time>2021-08-05T19:35:35Z</time>
      </trkpt>
      <trkpt lat="46.6601" lon="0.36984">
        <ele>83.29</ele>
        <time>2021-08-05T19:35:36Z</time>
      </trkpt>
      <trkpt lat="46.66018" lon="0.36985">
        <ele>83.29</ele>
        <time>2021-08-05T19:35:37Z</time>
      </trkpt>
      <trkpt lat="46.66027" lon="0.36986">
        <ele>82.81</ele>
        <time>2021-08-05T19:35:38Z</time>
      </trkpt>
      <trkpt lat="46.66033" lon="0.36983">
        <ele>82.33</ele>
        <time>2021-08-05T19:35:39Z</time>
      </trkpt>
      <trkpt lat="46.66042" lon="0.36976">
        <ele>81.85</ele>
        <time>2021-08-05T19:35:40Z</time>
      </trkpt>
      <trkpt lat="46.66057" lon="0.36958">
        <ele>81.37</ele>
        <time>2021-08-05T19:35:41Z</time>
      </trkpt>
      <trkpt lat="46.66057" lon="0.36958">
        <ele>80.41</ele>
        <time>2021-08-05T19:35:42Z</time>
      </trkpt>
      <trkpt lat="46.66062" lon="0.36946">
        <ele>79.45</ele>
        <time>2021-08-05T19:35:43Z</time>
      </trkpt>
      <trkpt lat="46.66067" lon="0.36934">
        <ele>78.97</ele>
        <time>2021-08-05T19:35:44Z</time>
      </trkpt>
      <trkpt lat="46.66071" lon="0.36922">
        <ele>78.48</ele>
        <time>2021-08-05T19:35:45Z</time>
      </trkpt>
      <trkpt lat="46.66075" lon="0.36908">
        <ele>78.97</ele>
        <time>2021-08-05T19:35:46Z</time>
      </trkpt>
      <trkpt lat="46.66075" lon="0.36891">
        <ele>79.45</ele>
        <time>2021-08-05T19:35:47Z</time>
      </trkpt>
      <trkpt lat="46.66075" lon="0.36875">
        <ele>78.48</ele>
        <time>2021-08-05T19:35:48Z</time>
      </trkpt>
      <trkpt lat="46.66074" lon="0.3686">
        <ele>78</ele>
        <time>2021-08-05T19:35:49Z</time>
      </trkpt>
      <trkpt lat="46.66061" lon="0.3684">
        <ele>78.48</ele>
        <time>2021-08-05T19:35:50Z</time>
      </trkpt>
      <trkpt lat="46.66061" lon="0.3684">
        <ele>78</ele>
        <time>2021-08-05T19:35:51Z</time>
      </trkpt>
      <trkpt lat="46.66055" lon="0.36831">
        <ele>78</ele>
        <time>2021-08-05T19:35:52Z</time>
      </trkpt>
      <trkpt lat="46.6605" lon="0.36824">
        <ele>78.48</ele>
        <time>2021-08-05T19:35:53Z</time>
      </trkpt>
      <trkpt lat="46.66058" lon="0.36804">
        <ele>78</ele>
        <time>2021-08-05T19:35:54Z</time>
      </trkpt>
      <trkpt lat="46.66064" lon="0.36778">
        <ele>78.48</ele>
        <time>2021-08-05T19:35:55Z</time>
      </trkpt>
      <trkpt lat="46.66068" lon="0.36764">
        <ele>78.97</ele>
        <time>2021-08-05T19:35:56Z</time>
      </trkpt>
      <trkpt lat="46.66098" lon="0.36657">
        <ele>79.93</ele>
        <time>2021-08-05T19:36:05Z</time>
      </trkpt>
      <trkpt lat="46.661" lon="0.36648">
        <ele>79.93</ele>
        <time>2021-08-05T19:36:06Z</time>
      </trkpt>
      <trkpt lat="46.66102" lon="0.3664">
        <ele>79.93</ele>
        <time>2021-08-05T19:36:07Z</time>
      </trkpt>
      <trkpt lat="46.66104" lon="0.36633">
        <ele>80.41</ele>
        <time>2021-08-05T19:36:08Z</time>
      </trkpt>
      <trkpt lat="46.66112" lon="0.36627">
        <ele>80.41</ele>
        <time>2021-08-05T19:36:09Z</time>
      </trkpt>
      <trkpt lat="46.66118" lon="0.36628">
        <ele>80.41</ele>
        <time>2021-08-05T19:36:10Z</time>
      </trkpt>
      <trkpt lat="46.66138" lon="0.36618">
        <ele>80.41</ele>
        <time>2021-08-05T19:36:13Z</time>
      </trkpt>
      <trkpt lat="46.66145" lon="0.36615">
        <ele>80.89</ele>
        <time>2021-08-05T19:36:14Z</time>
      </trkpt>
      <trkpt lat="46.66153" lon="0.36613">
        <ele>80.41</ele>
        <time>2021-08-05T19:36:15Z</time>
      </trkpt>
      <trkpt lat="46.6616" lon="0.36614">
        <ele>80.41</ele>
        <time>2021-08-05T19:36:16Z</time>
      </trkpt>
      <trkpt lat="46.66168" lon="0.36615">
        <ele>80.41</ele>
        <time>2021-08-05T19:36:17Z</time>
      </trkpt>
      <trkpt lat="46.66192" lon="0.36627">
        <ele>80.41</ele>
        <time>2021-08-05T19:36:20Z</time>
      </trkpt>
      <trkpt lat="46.66194" lon="0.36628">
        <ele>81.37</ele>
        <time>2021-08-05T19:36:22Z</time>
      </trkpt>
      <trkpt lat="46.66202" lon="0.3664">
        <ele>80.89</ele>
        <time>2021-08-05T19:36:23Z</time>
      </trkpt>
      <trkpt lat="46.66213" lon="0.36643">
        <ele>81.37</ele>
        <time>2021-08-05T19:36:25Z</time>
      </trkpt>
      <trkpt lat="46.66219" lon="0.36646">
        <ele>81.37</ele>
        <time>2021-08-05T19:36:26Z</time>
      </trkpt>
      <trkpt lat="46.66322" lon="0.36705">
        <ele>79.93</ele>
        <time>2021-08-05T19:36:42Z</time>
      </trkpt>
      <trkpt lat="46.66335" lon="0.36712">
        <ele>79.93</ele>
        <time>2021-08-05T19:36:50Z</time>
      </trkpt>
      <trkpt lat="46.66358" lon="0.36724">
        <ele>78.97</ele>
        <time>2021-08-05T19:37:21Z</time>
      </trkpt>
      <trkpt lat="46.66378" lon="0.36735">
        <ele>78.97</ele>
        <time>2021-08-05T19:37:27Z</time>
      </trkpt>
      <trkpt lat="46.66377" lon="0.3674">
        <ele>78.97</ele>
        <time>2021-08-05T19:37:28Z</time>
      </trkpt>
      <trkpt lat="46.66376" lon="0.36744">
        <ele>78.97</ele>
        <time>2021-08-05T19:37:29Z</time>
      </trkpt>
      <trkpt lat="46.66375" lon="0.36748">
        <ele>78.97</ele>
        <time>2021-08-05T19:37:30Z</time>
      </trkpt>
      <trkpt lat="46.66374" lon="0.36752">
        <ele>78.97</ele>
        <time>2021-08-05T19:37:31Z</time>
      </trkpt>
      <trkpt lat="46.66373" lon="0.36756">
        <ele>78.97</ele>
        <time>2021-08-05T19:37:32Z</time>
      </trkpt>
      <trkpt lat="46.66372" lon="0.36759">
        <ele>78.97</ele>
        <time>2021-08-05T19:37:33Z</time>
      </trkpt>
      <trkpt lat="46.6637" lon="0.3676">
        <ele>78.97</ele>
        <time>2021-08-05T19:37:34Z</time>
      </trkpt>
      <trkpt lat="46.66367" lon="0.3676">
        <ele>78.48</ele>
        <time>2021-08-05T19:37:35Z</time>
      </trkpt>
      <trkpt lat="46.66361" lon="0.36762">
        <ele>79.45</ele>
        <time>2021-08-05T19:37:50Z</time>
      </trkpt>
      <trkpt lat="46.66372" lon="0.36759">
        <ele>79.45</ele>
        <time>2021-08-05T19:37:51Z</time>
      </trkpt>
      <trkpt lat="46.66372" lon="0.36759">
        <ele>79.45</ele>
        <time>2021-08-05T19:37:52Z</time>
      </trkpt>
      <trkpt lat="46.66355" lon="0.36818">
        <ele>79.93</ele>
        <time>2021-08-05T19:38:06Z</time>
      </trkpt>
      <trkpt lat="46.66351" lon="0.36824">
        <ele>80.41</ele>
        <time>2021-08-05T19:38:19Z</time>
      </trkpt>
      <trkpt lat="46.66351" lon="0.36825">
        <ele>80.41</ele>
        <time>2021-08-05T19:40:09Z</time>
      </trkpt>
      <trkpt lat="46.66344" lon="0.36834">
        <ele>79.93</ele>
        <time>2021-08-05T19:44:46Z</time>
      </trkpt>
      <trkpt lat="46.66315" lon="0.36824">
        <ele>80.89</ele>
        <time>2021-08-05T19:44:58Z</time>
      </trkpt>
      <trkpt lat="46.66262" lon="0.3678">
        <ele>81.85</ele>
        <time>2021-08-05T19:45:19Z</time>
      </trkpt>
      <trkpt lat="46.66255" lon="0.36714">
        <ele>82.81</ele>
        <time>2021-08-05T19:45:34Z</time>
      </trkpt>
      <trkpt lat="46.66238" lon="0.36704">
        <ele>83.29</ele>
        <time>2021-08-05T19:45:47Z</time>
      </trkpt>
      <trkpt lat="46.66237" lon="0.36703">
        <ele>83.77</ele>
        <time>2021-08-05T19:45:59Z</time>
      </trkpt>
      <trkpt lat="46.66237" lon="0.36703">
        <ele>83.77</ele>
        <time>2021-08-05T19:46:06Z</time>
      </trkpt>
      <trkpt lat="46.66237" lon="0.36703">
        <ele>83.77</ele>
        <time>2021-08-05T19:46:07Z</time>
      </trkpt>
      <trkpt lat="46.66237" lon="0.36703">
        <ele>83.77</ele>
        <time>2021-08-05T19:46:08Z</time>
      </trkpt>
      <trkpt lat="46.66237" lon="0.36703">
        <ele>83.77</ele>
        <time>2021-08-05T19:46:09Z</time>
      </trkpt>
      <trkpt lat="46.66237" lon="0.36703">
        <ele>83.77</ele>
        <time>2021-08-05T19:46:10Z</time>
      </trkpt>
      <trkpt lat="46.66232" lon="0.36724">
        <ele>83.77</ele>
        <time>2021-08-05T19:46:11Z</time>
      </trkpt>
      <trkpt lat="46.66232" lon="0.36727">
        <ele>83.77</ele>
        <time>2021-08-05T19:46:12Z</time>
      </trkpt>
      <trkpt lat="46.6623" lon="0.36733">
        <ele>83.77</ele>
        <time>2021-08-05T19:46:13Z</time>
      </trkpt>
      <trkpt lat="46.66229" lon="0.36736">
        <ele>83.29</ele>
        <time>2021-08-05T19:46:14Z</time>
      </trkpt>
      <trkpt lat="46.66229" lon="0.36736">
        <ele>83.29</ele>
        <time>2021-08-05T19:46:15Z</time>
      </trkpt>
      <trkpt lat="46.66228" lon="0.36738">
        <ele>83.29</ele>
        <time>2021-08-05T19:46:16Z</time>
      </trkpt>
      <trkpt lat="46.66228" lon="0.36741">
        <ele>83.29</ele>
        <time>2021-08-05T19:46:17Z</time>
      </trkpt>
      <trkpt lat="46.66225" lon="0.3675">
        <ele>83.77</ele>
        <time>2021-08-05T19:46:32Z</time>
      </trkpt>
    </trkseg>
  </trk>
</gpx>